Time;durP1;ratioP1;P1;durP2;ratioP2;P2;SDS_P1;SDS_P2;PMS_P1;PMS_P2;Temp;Humidity;BMP_temperature;BMP_pressure;BME280_temperature;BME280_humidity;BME280_pressure;Samples;Min_cycle;Max_cycle;Signal;HPM_P1;HPM_P2
2023/10/07 00:02:17;;;;;;;5.93;4.07;;;;;;;20.71;45.21;94047.78;6071009;23;20042;-93
2023/10/07 00:04:44;;;;;;;6.47;4.68;;;;;;;20.71;45.20;94053.28;6047216;23;20026;-93
2023/10/07 00:07:14;;;;;;;8.25;4.68;;;;;;;20.75;45.19;94051.00;6039808;23;20022;-93
2023/10/07 00:09:41;;;;;;;;;;;;;;;20.75;44.94;94054.50;6071673;23;20018;-94
2023/10/07 00:12:12;;;;;;;6.72;4.03;;;;;;;20.73;45.09;94056.28;6046742;23;19918;-93
2023/10/07 00:14:39;;;;;;;7.00;4.70;;;;;;;20.70;45.07;94057.28;6050529;23;20022;-94
2023/10/07 00:17:06;;;;;;;6.88;4.45;;;;;;;20.71;45.25;94062.28;6053572;23;20022;-92
2023/10/07 00:19:33;;;;;;;6.45;4.32;;;;;;;20.71;45.19;94045.78;6105952;23;20485;-94
2023/10/07 00:21:59;;;;;;;6.95;4.90;;;;;;;20.70;45.00;94058.03;6079268;23;20022;-94
2023/10/07 00:24:26;;;;;;;7.30;4.53;;;;;;;20.71;45.09;94056.78;6080171;23;20018;-93
2023/10/07 00:26:56;;;;;;;7.00;4.57;;;;;;;20.69;45.17;94062.03;6081994;23;20018;-93
2023/10/07 00:29:24;;;;;;;6.97;4.17;;;;;;;20.69;45.33;94062.03;6082705;23;20100;-93
2023/10/07 00:31:50;;;;;;;7.05;4.70;;;;;;;20.70;44.87;94060.78;6104770;23;20022;-92
2023/10/07 00:34:18;;;;;;;6.32;4.70;;;;;;;20.73;45.34;94059.03;6079104;23;20091;-92
2023/10/07 00:36:47;;;;;;;7.40;4.55;;;;;;;20.69;45.27;94061.28;6080453;23;20018;-92
2023/10/07 00:39:20;;;;;;;7.10;4.13;;;;;;;20.68;45.08;94055.06;6081733;23;20026;-93
2023/10/07 00:41:51;;;;;;;8.95;4.50;;;;;;;20.69;45.07;94055.78;6083504;23;20096;-92
2023/10/07 00:44:23;;;;;;;4.88;3.90;;;;;;;20.68;44.98;94060.53;6078520;23;20089;-93
2023/10/07 00:47:07;;;;;;;5.30;4.18;;;;;;;20.68;45.09;94049.56;6105176;23;20036;-93
2023/10/07 00:49:42;;;;;;;6.90;4.07;;;;;;;20.68;45.26;94046.06;6082754;23;20006;-93
2023/10/07 00:52:27;;;;;;;7.18;4.05;;;;;;;20.70;45.20;94043.56;6103909;23;20201;-92
2023/10/07 01:00:32;;;;;;;5.53;4.13;;;;;;;20.70;45.15;94043.56;6109676;23;20460;-93
2023/10/07 01:02:57;;;;;;;4.45;3.47;;;;;;;20.67;45.02;94045.31;6112933;23;20026;-95
2023/10/07 01:05:27;;;;;;;6.10;4.10;;;;;;;20.65;45.21;94036.84;6081711;23;21031;-93
2023/10/07 01:07:55;;;;;;;5.68;3.97;;;;;;;20.66;45.17;94035.59;6083003;23;20022;-94
2023/10/07 01:10:31;;;;;;;5.05;3.70;;;;;;;20.69;45.27;94039.31;6082860;23;20070;-94
2023/10/07 01:13:01;;;;;;;6.63;4.00;;;;;;;20.68;45.14;94026.84;6085703;23;20010;-93
2023/10/07 01:15:29;;;;;;;4.13;3.50;;;;;;;20.66;45.09;94029.34;6082502;23;20028;-93
2023/10/07 01:17:57;;;;;;;7.32;4.05;;;;;;;20.67;45.24;94026.09;6083059;23;20033;-93
2023/10/07 01:20:34;;;;;;;7.28;3.67;;;;;;;20.67;45.27;94023.34;6081887;23;20022;-93
2023/10/07 01:23:03;;;;;;;6.53;4.03;;;;;;;20.67;44.95;94025.34;6082765;23;20010;-95
2023/10/07 01:25:32;;;;;;;5.03;3.50;;;;;;;20.66;45.22;94012.84;6082319;23;20062;-94
2023/10/07 01:28:01;;;;;;;5.82;3.70;;;;;;;20.67;45.06;94014.34;6082675;23;20024;-93
2023/10/07 01:30:29;;;;;;;8.80;4.43;;;;;;;20.68;45.29;94007.59;6082406;23;20076;-93
2023/10/07 01:33:09;;;;;;;7.32;3.70;;;;;;;20.67;45.09;94023.34;6081429;23;20014;-93
2023/10/07 01:35:39;;;;;;;4.35;3.90;;;;;;;20.67;45.39;94008.84;6082832;23;20010;-94
2023/10/07 01:38:09;;;;;;;6.97;3.60;;;;;;;20.69;45.02;94017.34;6080320;23;20231;-95
2023/10/07 01:40:55;;;;;;;5.68;4.10;;;;;;;20.66;45.19;94008.09;6083127;23;20753;-94
2023/10/07 01:43:23;;;;;;;5.95;3.83;;;;;;;20.66;45.12;93997.13;6058354;23;20022;-93
2023/10/07 01:45:52;;;;;;;4.60;3.50;;;;;;;20.66;45.10;94001.88;6078931;23;20379;-94
2023/10/07 01:48:18;;;;;;;5.78;3.85;;;;;;;20.66;45.40;94007.38;6078301;23;20017;-91
2023/10/07 01:50:45;;;;;;;6.78;3.95;;;;;;;20.66;45.22;94004.63;6102865;23;20017;-93
2023/10/07 01:53:11;;;;;;;8.30;4.53;;;;;;;20.65;45.29;94003.88;6079503;23;20013;-93
2023/10/07 01:55:42;;;;;;;6.32;4.57;;;;;;;20.65;45.30;94005.88;6079259;23;20080;-93
2023/10/07 01:58:10;;;;;;;5.53;3.58;;;;;;;20.61;45.38;94006.16;6102060;23;20022;-93
2023/10/07 02:00:38;;;;;;;6.05;3.92;;;;;;;20.64;45.28;94005.13;6080918;23;20016;-93
2023/10/07 02:03:08;;;;;;;7.43;4.27;;;;;;;20.62;45.40;93995.91;6078605;23;20021;-92
2023/10/07 02:05:40;;;;;;;7.85;4.53;;;;;;;20.64;45.44;93998.88;6079729;23;20018;-94
2023/10/07 02:08:11;;;;;;;4.38;3.97;;;;;;;20.61;45.36;93997.91;6068379;23;20018;-91
2023/10/07 02:10:42;;;;;;;6.30;4.13;;;;;;;20.60;45.41;93990.91;6080198;23;20555;-94
2023/10/07 02:13:14;;;;;;;5.35;4.10;;;;;;;20.58;45.40;93987.94;6080495;23;20090;-93
2023/10/07 02:15:43;;;;;;;6.47;4.28;;;;;;;20.58;45.54;93998.19;6080085;23;20045;-93
2023/10/07 02:18:15;;;;;;;6.37;4.40;;;;;;;20.59;45.45;93997.66;6073921;23;20026;-94
2023/10/07 02:20:43;;;;;;;8.88;4.43;;;;;;;20.59;45.41;93999.66;6053045;23;20577;-94
2023/10/07 02:26:15;;;;;;;5.63;3.80;;;;;;;20.61;45.51;93999.91;6078395;23;20426;-94
2023/10/07 02:28:45;;;;;;;5.95;3.88;;;;;;;20.61;45.59;93994.41;6078501;23;20037;-94
2023/10/07 02:31:18;;;;;;;7.82;4.03;;;;;;;20.62;45.67;93993.16;6050781;23;20095;-94
2023/10/07 02:33:45;;;;;;;6.28;4.18;;;;;;;20.60;45.39;93995.66;6078444;23;20485;-92
2023/10/07 02:36:27;;;;;;;5.45;3.60;;;;;;;20.61;45.56;93997.91;6053226;23;20046;-93
2023/10/07 02:38:53;;;;;;;5.70;4.15;;;;;;;20.65;45.67;93997.63;6083830;23;20018;-93
2023/10/07 02:41:24;;;;;;;6.15;4.57;;;;;;;20.61;45.59;93988.91;6062502;23;20021;-92
2023/10/07 02:43:50;;;;;;;5.72;4.10;;;;;;;20.62;45.55;93991.16;6055834;23;20018;-94
2023/10/07 02:46:32;;;;;;;5.78;4.40;;;;;;;20.61;45.65;93986.91;6076627;23;20015;-93
2023/10/07 02:49:05;;;;;;;6.03;4.25;;;;;;;20.62;45.51;93982.16;6082426;23;20026;-95
2023/10/07 02:51:39;;;;;;;6.60;4.53;;;;;;;20.61;45.58;93986.91;6051465;23;20089;-91
2023/10/07 02:54:07;;;;;;;5.60;4.25;;;;;;;20.63;45.46;93987.16;6078875;23;20049;-93
2023/10/07 02:56:43;;;;;;;4.85;3.67;;;;;;;20.59;45.56;93983.94;6076966;23;20019;-92
2023/10/07 02:59:23;;;;;;;6.68;3.95;;;;;;;20.61;45.53;93986.16;6055371;23;20038;-95
2023/10/07 03:04:34;;;;;;;6.57;4.47;;;;;;;20.57;45.61;93986.44;6080862;23;20097;-94
2023/10/07 03:07:00;;;;;;;6.40;3.88;;;;;;;20.56;45.65;93990.47;6078757;23;20050;-94
2023/10/07 03:09:33;;;;;;;6.18;3.80;;;;;;;20.56;45.48;93987.72;6076795;23;20014;-94
2023/10/07 03:12:04;;;;;;;5.53;3.83;;;;;;;20.57;45.62;93983.69;6056797;23;20022;-93
2023/10/07 03:14:29;;;;;;;;;;;;;;;20.61;45.60;93984.16;6079624;23;20010;-94
2023/10/07 03:16:59;;;;;;;6.07;4.10;;;;;;;20.59;45.63;93983.19;6078701;23;20432;-95
2023/10/07 03:19:46;;;;;;;6.20;4.03;;;;;;;20.58;45.77;93989.94;6064867;23;20050;-93
2023/10/07 03:22:15;;;;;;;6.63;4.63;;;;;;;20.55;45.49;93975.25;6085637;23;20014;-93
2023/10/07 03:24:48;;;;;;;5.97;4.30;;;;;;;20.57;45.72;93991.22;6083018;23;20014;-93
2023/10/07 03:27:22;;;;;;;6.15;4.03;;;;;;;20.56;45.68;93984.22;6083347;23;20450;-93
2023/10/07 03:30:12;;;;;;;8.75;4.60;;;;;;;20.53;45.80;93991.50;6078059;23;20050;-94
2023/10/07 03:32:54;;;;;;;4.68;3.72;;;;;;;20.55;45.67;93994.47;6062635;23;20022;-92
2023/10/07 03:35:35;;;;;;;7.57;3.95;;;;;;;20.54;45.68;93995.72;6034392;23;20062;-94
2023/10/07 03:38:04;;;;;;;5.55;4.13;;;;;;;20.54;45.61;94003.97;6060354;23;20019;-95
2023/10/07 03:40:35;;;;;;;4.20;3.70;;;;;;;20.55;45.48;93993.72;6054061;23;20042;-91
2023/10/07 03:43:00;;;;;;;;;;;;;;;20.58;45.64;94001.66;6030836;23;20025;-93
2023/10/07 03:45:29;;;;;;;5.55;4.05;;;;;;;20.53;45.48;93994.97;6076169;23;19913;-94
2023/10/07 03:47:56;;;;;;;5.30;3.78;;;;;;;20.51;45.61;93992.00;6052888;23;20010;-93
2023/10/07 03:50:34;;;;;;;4.82;4.15;;;;;;;20.53;45.64;93996.97;6069951;23;20043;-93
2023/10/07 03:53:01;;;;;;;4.75;3.97;;;;;;;20.56;45.69;93997.97;6024844;23;20031;-94
2023/10/07 03:55:28;;;;;;;4.13;3.70;;;;;;;20.52;45.92;93995.50;6068322;23;20094;-91
2023/10/07 03:57:55;;;;;;;6.30;4.45;;;;;;;20.52;45.80;94003.72;6071898;23;20023;-93
2023/10/07 04:00:21;;;;;;;6.25;4.35;;;;;;;20.52;45.71;93995.50;6054606;23;20031;-92
2023/10/07 04:02:50;;;;;;;5.60;4.15;;;;;;;20.52;45.58;94001.72;6026959;23;20014;-92
2023/10/07 04:05:31;;;;;;;5.68;4.22;;;;;;;20.55;45.57;94005.47;6074734;23;20051;-93
2023/10/07 04:08:02;;;;;;;5.03;4.10;;;;;;;20.54;45.47;94003.97;6033858;23;20042;-94
2023/10/07 04:10:45;;;;;;;6.93;4.15;;;;;;;20.53;45.61;93994.97;6053272;23;20033;-91
2023/10/07 04:13:21;;;;;;;5.65;4.57;;;;;;;20.52;45.71;94004.47;6056596;23;20018;-93
2023/10/07 04:15:51;;;;;;;6.00;4.15;;;;;;;20.53;45.53;93999.72;6032264;23;20022;-93
2023/10/07 04:18:17;;;;;;;6.55;4.15;;;;;;;20.53;45.61;93986.00;6051714;23;20026;-92
2023/10/07 04:23:21;;;;;;;7.47;4.45;;;;;;;20.54;45.44;93992.97;6104619;23;20030;-92
2023/10/07 04:25:47;;;;;;;5.88;4.00;;;;;;;20.52;45.63;93998.25;6085687;23;20080;-92
2023/10/07 04:28:14;;;;;;;7.25;4.45;;;;;;;20.52;45.77;93992.75;6083765;23;20010;-93
2023/10/07 04:30:40;;;;;;;5.55;3.83;;;;;;;20.49;45.69;93989.00;6083455;23;20093;-92
2023/10/07 04:33:09;;;;;;;6.65;4.30;;;;;;;20.49;45.76;93997.25;6081047;23;20073;-93
2023/10/07 04:35:35;;;;;;;6.25;4.53;;;;;;;20.50;45.60;93989.75;6081788;23;20027;-92
2023/10/07 04:38:24;;;;;;;6.40;4.47;;;;;;;20.50;45.57;93993.25;6064187;23;20022;-94
2023/10/07 04:43:47;;;;;;;5.97;3.95;;;;;;;20.49;45.62;93982.78;6105975;23;20028;-94
2023/10/07 04:46:24;;;;;;;5.78;4.53;;;;;;;20.51;45.74;93964.53;6084396;23;20014;-93
2023/10/07 04:52:07;;;;;;;6.38;4.35;;;;;;;20.50;45.88;93973.28;6110883;23;20024;-93
2023/10/07 04:54:36;;;;;;;6.45;4.38;;;;;;;20.47;45.65;93980.53;5968592;23;20016;-94
2023/10/07 04:57:09;;;;;;;7.88;5.00;;;;;;;20.45;45.59;93980.31;5968798;23;20155;-93
2023/10/07 04:59:35;;;;;;;6.03;4.22;;;;;;;20.47;45.77;93986.03;5969138;23;20023;-93
2023/10/07 05:02:10;;;;;;;4.78;3.58;;;;;;;20.48;45.70;93979.28;5989978;23;20031;-93
2023/10/07 05:04:39;;;;;;;6.25;4.15;;;;;;;20.48;45.62;93978.53;5990442;23;20024;-93
2023/10/07 05:07:04;;;;;;;5.88;4.57;;;;;;;20.48;45.69;93989.53;5990343;23;20027;-93
2023/10/07 05:09:32;;;;;;;6.43;4.05;;;;;;;20.48;45.41;93982.03;5967160;23;20548;-92
2023/10/07 05:11:58;;;;;;;6.03;4.15;;;;;;;20.47;45.57;93977.03;5987105;23;20023;-93
2023/10/07 05:14:25;;;;;;;6.55;4.40;;;;;;;20.47;45.58;93983.28;6000053;23;20012;-92
2023/10/07 05:16:52;;;;;;;6.20;4.40;;;;;;;20.47;45.69;93980.53;5967226;23;20016;-94
2023/10/07 05:19:22;;;;;;;7.25;4.28;;;;;;;20.49;45.58;93997.25;5966430;23;20024;-93
2023/10/07 05:21:59;;;;;;;5.72;4.13;;;;;;;20.50;45.36;93992.50;5990486;23;20075;-93
2023/10/07 05:24:28;;;;;;;6.15;4.32;;;;;;;20.49;45.39;93991.75;5988082;23;20016;-92
2023/10/07 05:26:55;;;;;;;5.72;4.18;;;;;;;20.50;45.19;94004.25;6014796;23;20052;-92
2023/10/07 05:29:21;;;;;;;6.88;4.70;;;;;;;20.49;45.82;94002.75;5989157;23;20477;-91
2023/10/07 05:31:47;;;;;;;6.95;4.32;;;;;;;20.50;45.51;93984.25;6045556;23;20034;-93
2023/10/07 05:34:14;;;;;;;7.05;4.68;;;;;;;20.50;45.57;94004.25;6105221;23;20050;-92
2023/10/07 05:36:41;;;;;;;8.82;4.30;;;;;;;20.50;45.55;94012.47;6081287;23;20014;-93
2023/10/07 05:39:13;;;;;;;7.18;4.80;;;;;;;20.51;45.52;94010.47;6078849;23;20020;-94
2023/10/07 05:41:41;;;;;;;6.80;4.45;;;;;;;20.48;45.62;94014.97;6082751;23;20030;-93
2023/10/07 05:44:09;;;;;;;7.68;4.88;;;;;;;20.46;45.30;94017.50;6079896;23;20022;-94
2023/10/07 05:46:36;;;;;;;6.57;3.90;;;;;;;20.49;45.45;94012.97;6084128;23;20069;-94
2023/10/07 05:49:04;;;;;;;5.43;4.25;;;;;;;20.50;45.57;94008.97;6084709;23;20049;-93
2023/10/07 05:51:31;;;;;;;5.25;4.22;;;;;;;20.47;45.38;94013.50;6095322;23;20053;-93
2023/10/07 05:53:58;;;;;;;7.22;4.40;;;;;;;20.50;45.39;94019.97;6085124;23;20025;-91
2023/10/07 05:56:24;;;;;;;7.75;5.25;;;;;;;20.48;45.52;94031.47;6107921;23;20330;-94
2023/10/07 05:58:56;;;;;;;6.97;4.80;;;;;;;20.48;45.63;94023.22;6086373;23;20024;-94
2023/10/07 06:01:22;;;;;;;5.65;4.43;;;;;;;20.49;45.60;94032.97;6109404;23;20057;-93
2023/10/07 06:03:48;;;;;;;4.93;4.30;;;;;;;20.48;45.56;94036.22;6056963;23;20081;-94
2023/10/07 06:06:14;;;;;;;5.97;4.30;;;;;;;20.50;45.64;94037.19;6054505;23;20132;-92
2023/10/07 06:08:40;;;;;;;5.80;4.55;;;;;;;20.50;45.56;94039.19;6031836;23;20046;-94
2023/10/07 06:11:10;;;;;;;6.40;4.78;;;;;;;20.50;45.64;94045.44;6028836;23;20015;-91
2023/10/07 06:13:37;;;;;;;7.07;4.30;;;;;;;20.48;45.72;94036.22;6008911;23;20018;-92
2023/10/07 06:16:04;;;;;;;5.80;4.22;;;;;;;20.49;45.77;94032.22;6039597;23;20316;-90
2023/10/07 06:18:31;;;;;;;6.20;4.60;;;;;;;20.49;45.71;94035.69;6017592;23;20018;-90
2023/10/07 06:21:11;;;;;;;5.85;4.20;;;;;;;20.51;45.48;94040.69;6017302;23;20022;-92
2023/10/07 06:23:36;;;;;;;5.30;4.15;;;;;;;20.51;45.44;94049.69;6042730;23;20026;-92
2023/10/07 06:26:09;;;;;;;7.60;4.80;;;;;;;20.51;45.43;94052.41;6040282;23;20023;-92
2023/10/07 06:28:35;;;;;;;7.35;5.30;;;;;;;20.50;45.49;94058.41;6018659;23;20022;-92
2023/10/07 06:31:01;;;;;;;6.88;4.78;;;;;;;20.53;45.48;94051.91;6016934;23;20101;-92
2023/10/07 06:33:27;;;;;;;7.10;4.00;;;;;;;20.51;45.57;94063.41;6039269;23;20014;-91
2023/10/07 06:35:53;;;;;;;6.40;4.25;;;;;;;20.52;45.49;94055.91;6062581;23;20358;-92
2023/10/07 06:38:21;;;;;;;6.03;4.50;;;;;;;20.50;45.68;94055.69;6063399;23;20026;-91
2023/10/07 06:40:48;;;;;;;5.07;4.15;;;;;;;20.52;45.63;94059.41;6041478;23;20145;-92
2023/10/07 06:43:15;;;;;;;100.65;79.05;;;;;;;20.55;45.24;94054.16;6039996;23;20030;-92
2023/10/07 06:45:44;;;;;;;7.32;5.07;;;;;;;20.52;45.50;94050.41;5979675;23;20040;-93
2023/10/07 06:48:11;;;;;;;15.77;12.98;;;;;;;20.57;45.50;94054.41;5954664;23;20016;-93
2023/10/07 06:50:41;;;;;;;6.75;4.57;;;;;;;20.53;45.29;94049.16;5955509;23;20012;-92
2023/10/07 06:53:11;;;;;;;7.45;4.38;;;;;;;20.57;45.58;94054.41;5954350;23;20035;-93
2023/10/07 06:55:41;;;;;;;;;;;;;;;20.58;45.38;94064.84;5956732;23;20121;-92
2023/10/07 06:58:07;;;;;;;8.27;6.47;;;;;;;20.56;45.47;94069.38;5977203;23;19973;-92
2023/10/07 07:00:47;;;;;;;8.77;5.85;;;;;;;20.55;45.41;94074.13;5954762;23;20098;-92
2023/10/07 07:03:18;;;;;;;10.17;7.13;;;;;;;20.55;45.30;94067.88;5959654;23;20040;-91
2023/10/07 07:05:45;;;;;;;9.15;6.32;;;;;;;20.56;45.21;94083.13;5957733;23;20412;-92
2023/10/07 07:08:11;;;;;;;9.32;6.63;;;;;;;20.56;45.25;94091.34;5955601;23;20015;-92
2023/10/07 07:10:37;;;;;;;8.32;6.43;;;;;;;20.58;45.09;94084.06;5956074;23;20330;-92
2023/10/07 07:13:12;;;;;;;9.57;7.25;;;;;;;20.57;45.21;94076.38;5965723;23;20055;-92
2023/10/07 07:15:38;;;;;;;10.52;7.10;;;;;;;20.61;45.35;94079.56;5992478;23;20047;-94
2023/10/07 07:23:17;;;;;;;10.50;6.38;;;;;;;20.62;45.47;94070.06;6057797;23;20022;-94
2023/10/07 07:25:43;;;;;;;7.70;5.70;;;;;;;20.59;45.10;94069.09;6071403;23;20033;-92
2023/10/07 07:28:13;;;;;;;9.93;6.25;;;;;;;20.59;45.46;94074.56;6070263;23;20014;-94
2023/10/07 07:30:39;;;;;;;10.63;5.85;;;;;;;20.62;45.30;94092.03;6072051;23;20026;-93
2023/10/07 07:33:08;;;;;;;7.32;5.80;;;;;;;20.59;45.22;94096.56;6069984;23;20065;-92
2023/10/07 07:35:40;;;;;;;9.98;6.10;;;;;;;20.60;45.28;94089.81;6072172;23;20024;-93
2023/10/07 07:38:43;;;;;;;7.93;5.45;;;;;;;20.59;45.29;94091.06;6069480;23;20125;-92
2023/10/07 07:41:40;;;;;;;;;;;;;;;;;;;;;
2023/10/07 07:44:32;;;;;;;10.90;5.82;;;;;;;20.62;45.47;94095.53;6006569;23;20560;-94
2023/10/07 07:47:07;;;;;;;8.95;6.10;;;;;;;20.63;45.25;94099.03;6027858;23;20359;-94
2023/10/07 07:49:39;;;;;;;8.57;5.78;;;;;;;20.61;45.18;94109.78;6034186;23;20052;-94
2023/10/07 07:52:08;;;;;;;6.50;4.85;;;;;;;20.60;45.24;94109.03;6044291;23;20026;-93
2023/10/07 07:54:33;;;;;;;8.75;5.57;;;;;;;20.61;45.50;94115.28;6072890;23;20196;-93
2023/10/07 07:57:04;;;;;;;9.20;5.43;;;;;;;20.59;45.23;94115.78;6074790;23;20108;-94
2023/10/07 07:59:33;;;;;;;10.50;6.10;;;;;;;20.61;45.24;94120.78;6077796;23;20028;-92
2023/10/07 08:02:11;;;;;;;9.13;5.65;;;;;;;20.62;45.21;94119.53;6075422;23;20010;-93
2023/10/07 08:04:49;;;;;;;7.30;5.38;;;;;;;20.62;45.14;94117.53;6077243;23;20014;-92
2023/10/07 08:09:50;;;;;;;7.80;5.53;;;;;;;20.63;45.38;94110.03;6075618;23;20274;-95
2023/10/07 08:12:23;;;;;;;7.95;4.68;;;;;;;20.60;45.19;94111.03;6059034;23;20088;-94
2023/10/07 08:14:51;;;;;;;7.10;4.68;;;;;;;20.61;45.15;94121.53;6036773;23;20013;-94
2023/10/07 08:17:20;;;;;;;7.97;4.93;;;;;;;20.65;45.11;94121.25;6056304;23;20014;-94
2023/10/07 08:19:52;;;;;;;12.27;5.15;;;;;;;20.65;44.99;94124.75;6052735;23;20454;-94
2023/10/07 08:22:20;;;;;;;10.00;6.20;;;;;;;20.64;45.09;94120.50;6070058;23;20025;-94
2023/10/07 08:24:46;;;;;;;11.32;5.13;;;;;;;20.65;45.05;94121.25;6071621;23;20018;-93
2023/10/07 08:30:05;;;;;;;8.57;4.65;;;;;;;20.69;45.10;94110.75;6099126;23;20078;-93
2023/10/07 08:32:41;;;;;;;8.40;5.13;;;;;;;20.67;45.10;94108.50;6071773;23;20090;-93
2023/10/07 08:35:17;;;;;;;8.18;4.97;;;;;;;20.70;44.87;94117.72;6070902;23;20327;-93
2023/10/07 08:37:45;;;;;;;8.88;5.15;;;;;;;20.70;45.13;94110.25;6072302;23;20506;-92
2023/10/07 08:40:25;;;;;;;8.10;5.47;;;;;;;20.69;45.11;94111.50;6070239;23;20038;-91
2023/10/07 08:42:56;;;;;;;7.97;4.97;;;;;;;20.70;44.95;94110.25;6073056;23;20061;-93
2023/10/07 08:45:23;;;;;;;9.18;4.72;;;;;;;20.70;45.01;94106.75;6070336;23;20026;-93
2023/10/07 08:47:50;;;;;;;10.60;4.75;;;;;;;20.71;44.77;94119.97;6094958;23;20061;-94
2023/10/07 08:50:18;;;;;;;7.68;4.90;;;;;;;20.72;44.82;94113.22;6069013;23;20096;-94
2023/10/07 08:52:44;;;;;;;6.75;4.65;;;;;;;20.71;44.95;94100.00;6035941;23;20023;-93
2023/10/07 08:55:10;;;;;;;5.55;4.00;;;;;;;20.76;44.88;94099.22;5987389;23;20019;-93
2023/10/07 08:57:36;;;;;;;7.80;4.28;;;;;;;20.75;45.41;94092.22;6036010;23;20577;-91
2023/10/07 09:00:10;;;;;;;6.72;4.63;;;;;;;20.74;44.73;94088.00;6012387;23;20071;-94
2023/10/07 09:02:36;;;;;;;6.97;4.53;;;;;;;20.74;44.72;94094.22;5991130;23;20023;-94
2023/10/07 09:05:09;;;;;;;7.43;4.40;;;;;;;20.75;44.82;94095.72;6034588;23;20114;-93
2023/10/07 09:07:36;;;;;;;7.55;4.40;;;;;;;20.77;44.80;94089.72;6034833;23;20022;-93
2023/10/07 09:10:15;;;;;;;5.70;4.13;;;;;;;20.74;45.23;94085.25;6012289;23;20582;-93
2023/10/07 09:12:48;;;;;;;6.20;4.35;;;;;;;20.74;44.69;94096.97;5994759;23;20486;-93
2023/10/07 09:15:21;;;;;;;7.53;4.57;;;;;;;20.76;44.87;94093.72;6032625;23;20015;-92
2023/10/07 09:17:46;;;;;;;8.13;4.90;;;;;;;20.75;44.75;94092.22;5990109;23;20359;-93
2023/10/07 09:20:29;;;;;;;10.43;4.82;;;;;;;20.77;44.61;94101.47;6011242;23;20015;-93
2023/10/07 09:23:01;;;;;;;7.45;5.05;;;;;;;20.75;44.79;94120.47;6028137;23;20018;-92
2023/10/07 09:25:33;;;;;;;7.38;4.38;;;;;;;20.76;44.99;94116.44;6072666;23;20036;-93
2023/10/07 09:28:00;;;;;;;12.57;4.45;;;;;;;20.78;45.10;94111.19;6073791;23;20142;-92
2023/10/07 09:30:35;;;;;;;5.60;3.95;;;;;;;20.79;44.97;94126.41;6074644;23;20021;-93
2023/10/07 09:33:06;;;;;;;6.55;4.30;;;;;;;20.80;44.73;94107.91;6077111;23;20518;-93
2023/10/07 09:35:33;;;;;;;9.30;4.70;;;;;;;20.77;44.79;94117.19;6074556;23;20093;-93
2023/10/07 09:38:00;;;;;;;8.57;4.40;;;;;;;20.79;44.52;94106.41;6075926;23;20010;-92
2023/10/07 09:43:18;;;;;;;8.30;4.88;;;;;;;20.79;44.44;94107.16;6101831;23;20025;-93
2023/10/07 09:45:46;;;;;;;11.45;5.15;;;;;;;20.79;44.32;94109.16;6076105;23;20033;-92
2023/10/07 09:48:15;;;;;;;16.67;5.00;;;;;;;20.82;44.43;94103.41;6076166;23;20345;-94
2023/10/07 09:50:42;;;;;;;18.98;5.25;;;;;;;20.83;44.18;94084.91;6076660;23;20092;-94
2023/10/07 09:53:27;;;;;;;11.65;5.57;;;;;;;20.82;44.26;94086.16;6076395;23;20057;-92
2023/10/07 09:56:29;;;;;;;10.48;5.10;;;;;;;20.81;44.38;94082.66;6101304;23;20506;-95
2023/10/07 09:59:00;;;;;;;12.30;5.28;;;;;;;20.84;44.27;94078.16;6126657;23;20018;-94
2023/10/07 10:01:58;;;;;;;11.27;5.40;;;;;;;20.78;44.36;94072.72;6100081;23;20022;-94
2023/10/07 10:04:36;;;;;;;10.52;4.60;;;;;;;20.81;44.43;94079.19;6100056;23;20101;-94
2023/10/07 10:07:29;;;;;;;15.18;5.55;;;;;;;20.80;44.52;94080.44;6101079;23;20489;-96
2023/10/07 10:10:07;;;;;;;13.38;4.82;;;;;;;20.78;44.43;94069.22;6127772;23;20014;-94
2023/10/07 10:12:56;;;;;;;8.80;5.25;;;;;;;20.80;44.55;94069.44;6082524;23;20033;-96
2023/10/07 10:18:05;;;;;;;8.68;4.80;;;;;;;20.81;44.26;94070.94;6098487;23;20478;-94
2023/10/07 10:20:42;;;;;;;13.15;5.75;;;;;;;20.81;44.62;94079.94;6074750;23;20030;-94
2023/10/07 10:26:13;;;;;;;12.35;5.28;;;;;;;20.84;44.25;94078.16;6029721;23;20097;-93
2023/10/07 10:28:39;;;;;;;12.55;5.10;;;;;;;20.84;44.76;94083.66;6002756;23;20316;-95
2023/10/07 10:31:06;;;;;;;9.07;5.15;;;;;;;20.84;44.56;94087.16;5993939;23;20023;-95
2023/10/07 10:33:33;;;;;;;16.73;5.95;;;;;;;20.84;44.49;94070.66;6020898;23;20147;-94
2023/10/07 10:35:58;;;;;;;12.20;5.05;;;;;;;20.81;44.72;94077.19;5996497;23;20098;-94
2023/10/07 10:38:41;;;;;;;9.65;4.35;;;;;;;20.82;44.70;94078.66;5996863;23;20023;-91
2023/10/07 10:41:08;;;;;;;9.50;4.90;;;;;;;20.83;44.42;94057.44;5980377;23;20074;-94
2023/10/07 10:43:33;;;;;;;11.52;4.80;;;;;;;20.86;44.38;94061.91;5966311;23;20392;-95
2023/10/07 10:46:05;;;;;;;10.43;4.43;;;;;;;20.82;44.05;94053.19;5985946;23;20020;-92
2023/10/07 10:48:31;;;;;;;9.82;4.70;;;;;;;20.82;43.87;94048.44;5986832;23;20023;-95
2023/10/07 10:50:56;;;;;;;9.82;4.72;;;;;;;20.84;44.01;94051.44;5987361;23;20020;-94
2023/10/07 10:53:22;;;;;;;7.68;4.05;;;;;;;20.83;44.10;94041.69;5988274;23;20031;-94
2023/10/07 10:55:48;;;;;;;7.88;4.38;;;;;;;20.85;44.07;94046.69;5997596;23;20046;-91
2023/10/07 10:58:17;;;;;;;7.25;4.25;;;;;;;20.83;43.85;94038.19;6045286;23;20039;-95
2023/10/07 11:00:49;;;;;;;13.15;5.00;;;;;;;20.84;43.93;94053.44;6043297;23;20018;-94
2023/10/07 11:03:17;;;;;;;7.88;4.72;;;;;;;20.85;43.91;94043.94;6018936;23;20027;-94
2023/10/07 11:05:46;;;;;;;8.77;5.35;;;;;;;20.84;44.03;94023.94;6022416;23;20410;-94
2023/10/07 11:08:12;;;;;;;9.27;3.90;;;;;;;20.83;43.93;94032.69;6022402;23;20023;-92
2023/10/07 11:10:46;;;;;;;7.30;4.15;;;;;;;20.85;43.82;94024.69;6022345;23;20022;-94
2023/10/07 11:13:13;;;;;;;9.43;4.82;;;;;;;20.83;43.55;94027.22;6045746;23;20011;-92
2023/10/07 11:15:41;;;;;;;12.73;4.50;;;;;;;20.82;43.63;94020.97;6049042;23;20022;-94
2023/10/07 11:18:13;;;;;;;5.93;4.22;;;;;;;20.83;43.58;94040.94;6073672;23;20023;-94
2023/10/07 11:20:45;;;;;;;11.73;4.30;;;;;;;20.81;43.46;94035.22;6077050;23;20018;-93
2023/10/07 11:23:15;;;;;;;9.95;4.65;;;;;;;20.81;43.62;94019.47;6074674;23;20014;-95
2023/10/07 11:25:42;;;;;;;8.77;4.00;;;;;;;20.82;43.54;94029.22;6076275;23;20022;-94
2023/10/07 11:28:15;;;;;;;10.48;4.35;;;;;;;20.83;43.51;94016.22;6049999;23;20375;-92
2023/10/07 11:30:47;;;;;;;10.68;4.38;;;;;;;20.81;43.67;94015.97;6079560;23;20533;-94
2023/10/07 11:33:16;;;;;;;10.25;4.32;;;;;;;20.84;43.43;94006.72;6075442;23;20015;-92
2023/10/07 11:35:42;;;;;;;8.23;4.53;;;;;;;20.84;43.48;94012.97;6076759;23;20045;-94
2023/10/07 11:38:09;;;;;;;7.78;4.10;;;;;;;20.84;43.58;94009.47;6052923;23;20026;-93
2023/10/07 11:40:34;;;;;;;10.05;4.45;;;;;;;20.82;43.48;94009.22;6077471;23;20469;-93
2023/10/07 11:43:09;;;;;;;7.95;3.97;;;;;;;20.81;43.38;94013.97;6076546;23;20014;-95
2023/10/07 11:45:37;;;;;;;8.63;4.28;;;;;;;20.83;43.56;94016.22;6078508;23;20021;-94
2023/10/07 11:48:04;;;;;;;12.32;5.00;;;;;;;20.83;43.58;94016.22;6075198;23;20011;-91
2023/10/07 11:50:34;;;;;;;7.68;4.13;;;;;;;20.85;43.38;94022.69;6053161;23;20125;-93
2023/10/07 11:53:02;;;;;;;6.80;3.63;;;;;;;20.86;43.38;94015.19;6079594;23;20388;-93
2023/10/07 11:55:31;;;;;;;10.35;4.13;;;;;;;20.84;43.63;94021.19;6077908;23;20073;-94
2023/10/07 11:57:59;;;;;;;6.97;3.58;;;;;;;20.81;43.39;94024.97;6074682;23;20018;-94
2023/10/07 12:00:29;;;;;;;9.20;4.50;;;;;;;20.83;43.37;94024.47;6050837;23;20101;-94
2023/10/07 12:02:57;;;;;;;7.43;4.03;;;;;;;20.85;43.46;94028.19;6050669;23;20022;-95
2023/10/07 12:05:27;;;;;;;7.13;4.13;;;;;;;20.84;42.98;94029.44;6048952;23;20093;-94
2023/10/07 12:07:54;;;;;;;8.00;4.00;;;;;;;20.86;42.79;94023.44;6070818;23;20018;-95
2023/10/07 12:10:21;;;;;;;6.93;3.50;;;;;;;20.84;42.86;94009.47;6072609;23;20053;-94
2023/10/07 12:12:49;;;;;;;6.07;3.85;;;;;;;20.85;42.83;94024.69;6050983;23;20023;-93
2023/10/07 12:15:17;;;;;;;5.65;3.17;;;;;;;20.85;42.79;94019.19;6047754;23;20097;-94
2023/10/07 12:17:46;;;;;;;9.45;3.70;;;;;;;20.86;42.85;94020.69;6071619;23;20026;-94
2023/10/07 12:20:13;;;;;;;5.60;3.47;;;;;;;20.85;42.67;94022.69;6048260;23;20026;-95
2023/10/07 12:22:42;;;;;;;8.32;4.30;;;;;;;20.84;42.66;94018.44;6072077;23;20637;-95
2023/10/07 12:25:18;;;;;;;8.48;4.22;;;;;;;20.86;42.78;94017.94;6073162;23;20494;-94
2023/10/07 12:27:48;;;;;;;6.53;3.65;;;;;;;20.84;42.62;94012.22;6072251;23;20085;-93
2023/10/07 12:30:17;;;;;;;9.65;3.67;;;;;;;20.86;42.70;94015.94;6073065;23;20018;-92